»·PEaware :: UAL1928 KPDX-KMRY

UAL1928 :: KPDX-KMRY

FLIGHT INFORMATION

Flight Status: Arrived
Operator:
United Airlines
More flights by this operator :: More flights under this callsign
Pilot: Chris C. (10181)
Aircraft: BOEING 737-200
(B732)
More flights by this aircraft type
Origin: KPDX Portland Intl
United States
Destination: KMRY Monterey Peninsula
United States
More flights between these airports :: More routes between these airports
Route: PTLD1 EUG J126 SNS
File this flight plan on PilotEdge
Remarks: Happy Holidays!
Altitude:
(Current/Filed)
29,000ft
Speed:
(Current/Filed)
470kts
Departed: 15-Dec-19 04:16 PM
Arrived: 15-Dec-19 05:56 PM
Distance/Time
Traveled:
541nm/1:40
Distance/Time
To Go:
Arrived

Flight Plot

Page will automatically refresh every two minutes.

Flight plan parsing failed; only flown route is shown


Map Options




Map Legend


Flown Route
Filed Route
Departure Airport
Arrival Airport
Navaid (VOR, NDB)
Fix

Horizontal Profiles

Position Reports

Time Latitude Longitude Heading Altitude Ground
Speed
15-Dec-19 15:31 45.589837 -122.590583 225 38ft 0kts
15-Dec-19 15:32 45.589837 -122.590583 225 38ft 0kts
15-Dec-19 15:33 45.589837 -122.590583 225 38ft 0kts
15-Dec-19 15:34 45.589837 -122.590583 225 38ft 0kts
15-Dec-19 15:35 45.589837 -122.590583 225 38ft 0kts
15-Dec-19 15:36 45.589837 -122.590583 225 38ft 0kts
15-Dec-19 15:37 45.589837 -122.590583 225 38ft 0kts
15-Dec-19 15:38 45.589837 -122.590583 225 38ft 0kts
15-Dec-19 15:39 45.589837 -122.590583 225 38ft 0kts
15-Dec-19 15:40 45.589837 -122.590583 225 38ft 0kts
15-Dec-19 15:41 45.589837 -122.590583 225 38ft 0kts
15-Dec-19 15:42 45.589837 -122.590583 225 38ft 0kts
15-Dec-19 15:43 45.589837 -122.590583 225 38ft 0kts
15-Dec-19 15:44 45.589837 -122.590583 225 38ft 0kts
15-Dec-19 15:45 45.589837 -122.590583 225 38ft 0kts
15-Dec-19 15:46 45.589837 -122.590583 225 38ft 0kts
15-Dec-19 15:47 45.589837 -122.590583 225 38ft 0kts
15-Dec-19 15:48 45.589837 -122.590583 225 38ft 0kts
15-Dec-19 15:49 45.589837 -122.590583 225 38ft 0kts
15-Dec-19 15:50 45.589837 -122.590583 225 38ft 0kts
15-Dec-19 15:51 45.589837 -122.590583 225 38ft 0kts
15-Dec-19 15:52 45.589837 -122.590583 225 38ft 0kts
15-Dec-19 15:53 45.589837 -122.590583 225 38ft 0kts
15-Dec-19 15:54 45.589837 -122.590583 225 38ft 0kts
15-Dec-19 15:55 45.589837 -122.590583 225 38ft 0kts
15-Dec-19 15:56 45.589837 -122.590583 225 38ft 0kts
15-Dec-19 15:57 45.589837 -122.590583 225 38ft 0kts
15-Dec-19 15:58 45.589837 -122.590583 225 38ft 0kts
15-Dec-19 15:59 45.589837 -122.590583 225 38ft 0kts
15-Dec-19 16:00 45.589837 -122.590583 225 38ft 0kts
15-Dec-19 16:01 45.589837 -122.590583 225 38ft 0kts
15-Dec-19 16:02 45.589837 -122.590583 225 38ft 0kts
15-Dec-19 16:03 45.589834 -122.590587 225 38ft 0kts
15-Dec-19 16:04 45.590228 -122.589995 239 38ft 2kts
15-Dec-19 16:05 45.590224 -122.589322 299 38ft 0kts
15-Dec-19 16:06 45.590224 -122.589322 299 38ft 0kts
15-Dec-19 16:07 45.590224 -122.589322 299 38ft 0kts
15-Dec-19 16:08 45.590224 -122.589322 299 38ft 0kts
15-Dec-19 16:09 45.590224 -122.589322 299 38ft 0kts
15-Dec-19 16:10 45.590224 -122.589323 299 38ft 0kts
15-Dec-19 16:11 45.591659 -122.592920 299 38ft 15kts
15-Dec-19 16:12 45.593560 -122.597768 308 38ft 11kts
15-Dec-19 16:13 45.594381 -122.597598 42 38ft 0kts
15-Dec-19 16:14 45.594381 -122.597598 42 38ft 0kts
15-Dec-19 16:15 45.589961 -122.583158 119 38ft 134kts
15-Dec-19 16:16 45.567630 -122.525611 117 2062ft 188kts
15-Dec-19 16:17 45.518733 -122.508250 200 5213ft 216kts
15-Dec-19 16:18 45.459606 -122.538469 202 7530ft 246kts
15-Dec-19 16:19 45.395152 -122.572248 203 9918ft 255kts
15-Dec-19 16:20 45.328614 -122.604480 204 11928ft 270kts
15-Dec-19 16:21 45.254320 -122.636265 199 13942ft 285kts
15-Dec-19 16:22 45.172532 -122.669385 202 14948ft 331kts
15-Dec-19 16:23 45.075684 -122.710396 201 14949ft 386kts
15-Dec-19 16:24 44.971704 -122.764924 206 14982ft 408kts
15-Dec-19 16:25 44.867216 -122.830934 207 15503ft 409kts
15-Dec-19 16:26 44.764458 -122.894865 207 16953ft 387kts
15-Dec-19 16:27 44.680809 -122.941734 207 20531ft 303kts
15-Dec-19 16:28 44.597118 -122.986701 207 21463ft 338kts
15-Dec-19 16:29 44.503330 -123.034853 203 22110ft 379kts
15-Dec-19 16:30 44.399586 -123.080097 202 23212ft 397kts
15-Dec-19 16:31 44.293781 -123.126675 204 24555ft 401kts
15-Dec-19 16:32 44.186828 -123.178258 204 25630ft 409kts
15-Dec-19 16:33 44.070911 -123.179645 172 26548ft 438kts
15-Dec-19 16:34 43.950598 -123.142318 172 27421ft 445kts
15-Dec-19 16:35 43.830509 -123.144373 189 28152ft 441kts
15-Dec-19 16:36 43.706250 -123.135483 177 28858ft 455kts
15-Dec-19 16:37 43.580229 -123.110350 176 29311ft 465kts
15-Dec-19 16:38 43.451836 -123.084600 176 29300ft 465kts
15-Dec-19 16:39 43.323554 -123.058435 176 29301ft 464kts
15-Dec-19 16:40 43.195978 -123.032131 176 29301ft 464kts
15-Dec-19 16:41 43.067850 -123.005446 176 29302ft 465kts
15-Dec-19 16:42 42.939847 -122.983224 180 29298ft 464kts
15-Dec-19 16:43 42.813929 -122.964017 180 29293ft 465kts
15-Dec-19 16:44 42.684936 -122.943597 180 29293ft 466kts
15-Dec-19 16:45 42.556062 -122.929948 183 29292ft 464kts
15-Dec-19 16:46 42.427265 -122.917918 183 29293ft 465kts
15-Dec-19 16:47 42.298719 -122.878992 167 29293ft 479kts
15-Dec-19 16:48 42.171798 -122.822976 167 29291ft 480kts
15-Dec-19 16:49 42.043985 -122.773046 171 29278ft 479kts
15-Dec-19 16:50 41.914159 -122.727289 171 29264ft 481kts
15-Dec-19 16:51 41.787820 -122.682890 171 29265ft 481kts
15-Dec-19 16:52 41.658396 -122.637444 170 29265ft 481kts
15-Dec-19 16:53 41.530110 -122.592359 170 29265ft 481kts
15-Dec-19 16:54 41.400459 -122.546862 170 29265ft 482kts
15-Dec-19 16:55 41.271196 -122.501466 170 29265ft 483kts
15-Dec-19 16:56 41.141019 -122.455830 170 29265ft 484kts
15-Dec-19 16:57 41.010900 -122.409955 170 29262ft 486kts
15-Dec-19 16:59 40.883383 -122.365744 174 29261ft 488kts
15-Dec-19 17:00 40.749828 -122.331093 176 29265ft 488kts
15-Dec-19 17:01 40.615947 -122.305790 181 29266ft 484kts
15-Dec-19 17:02 40.482137 -122.284982 181 29265ft 485kts
15-Dec-19 17:03 40.348241 -122.268804 183 29273ft 483kts
15-Dec-19 17:04 40.214172 -122.255961 184 29281ft 484kts
15-Dec-19 17:05 40.079489 -122.241413 175 29280ft 493kts
15-Dec-19 17:06 39.946720 -122.187906 165 29286ft 502kts
15-Dec-19 17:07 39.841079 -122.137048 164 29291ft 503kts
15-Dec-19 17:08 39.709785 -122.073442 164 29293ft 503kts
15-Dec-19 17:09 39.579110 -122.004780 161 29292ft 505kts
15-Dec-19 17:10 39.449455 -121.933518 161 29289ft 506kts
15-Dec-19 17:11 39.319087 -121.863372 164 29283ft 505kts
15-Dec-19 17:12 39.186400 -121.805452 169 29284ft 503kts
15-Dec-19 17:13 39.051319 -121.760941 173 29284ft 502kts
15-Dec-19 17:14 38.916182 -121.720585 173 28248ft 492kts
15-Dec-19 17:15 38.784553 -121.682407 173 26205ft 476kts
15-Dec-19 17:15 38.684032 -121.654692 172 24679ft 463kts
15-Dec-19 17:17 38.535788 -121.616025 173 24287ft 475kts
15-Dec-19 17:18 38.404259 -121.579572 169 24288ft 492kts
15-Dec-19 17:18 38.292829 -121.541052 159 24275ft 506kts
15-Dec-19 17:20 38.161775 -121.417315 170 24264ft 509kts
15-Dec-19 17:21 38.030110 -121.418058 192 23000ft 455kts
15-Dec-19 17:21 37.932984 -121.447652 204 21993ft 416kts
15-Dec-19 17:22 37.822784 -121.484059 183 19997ft 419kts
15-Dec-19 17:24 37.689557 -121.488275 188 17960ft 399kts
15-Dec-19 17:24 37.600167 -121.507616 195 16511ft 384kts
15-Dec-19 17:25 37.497553 -121.535466 195 15052ft 370kts
15-Dec-19 17:26 37.395373 -121.563891 193 15006ft 398kts
15-Dec-19 17:27 37.279383 -121.588392 191 15002ft 441kts
15-Dec-19 17:28 37.155068 -121.614360 191 14984ft 450kts
15-Dec-19 17:29 37.034704 -121.628164 180 14979ft 423kts
15-Dec-19 17:30 36.925573 -121.622915 179 14416ft 372kts
15-Dec-19 17:31 36.823252 -121.609403 171 12678ft 365kts
15-Dec-19 17:32 36.728001 -121.592404 177 12106ft 321kts
15-Dec-19 17:33 36.657561 -121.631413 225 10939ft 272kts
15-Dec-19 17:34 36.597711 -121.687576 225 8892ft 263kts
15-Dec-19 17:35 36.547673 -121.750419 231 6960ft 250kts
15-Dec-19 17:36 36.523215 -121.820059 279 4906ft 225kts
15-Dec-19 17:37 36.533916 -121.913867 280 4975ft 265kts
15-Dec-19 17:38 36.542047 -121.991365 276 4975ft 203kts
15-Dec-19 17:39 36.488352 -122.012095 140 5969ft 299kts
15-Dec-19 17:40 36.447606 -121.922453 113 5980ft 275kts
15-Dec-19 17:41 36.426731 -121.829942 93 5996ft 287kts
15-Dec-19 17:42 36.418203 -121.729441 92 5987ft 284kts
15-Dec-19 17:43 36.409768 -121.635885 93 5984ft 260kts
15-Dec-19 17:44 36.402472 -121.546241 91 5987ft 262kts
15-Dec-19 17:45 36.397837 -121.454939 65 5982ft 263kts
15-Dec-19 17:46 36.446769 -121.446211 311 5961ft 185kts
15-Dec-19 17:47 36.473703 -121.503944 300 5636ft 205kts
15-Dec-19 17:48 36.489733 -121.567053 286 4979ft 167kts
15-Dec-19 17:49 36.511387 -121.614478 306 4263ft 163kts
15-Dec-19 17:50 36.527370 -121.666308 299 3646ft 154kts
15-Dec-19 17:51 36.542345 -121.715204 291 2780ft 136kts
15-Dec-19 17:52 36.557818 -121.757602 289 2175ft 134kts
15-Dec-19 17:53 36.572795 -121.802859 292 1135ft 142kts
15-Dec-19 17:54 36.586503 -121.842935 292 212ft 69kts
15-Dec-19 17:55 36.587403 -121.848105 293 197ft 12kts
15-Dec-19 17:56 36.587420 -121.849531 231 196ft 4kts
15-Dec-19 17:57 36.587360 -121.849625 229 197ft 0kts

Navigation Log

Ident Type
Flight plan parsing failed, navigation log unavailable